Decoded Metar for YPTN (KATHERINE/TINDAL in AUSTRALIA) (IATA:N/A) | Meteo·Mobile Aviation Weather
aviador You're here:

YPTN Decoded Metar

KATHERINE/TINDAL in AUSTRALIA
Report Time2020-02-23 11:00:00
UTC Time2020-02-23 11:19:16
Flight Rules vfr VFR
Wind280° at 05 kt
W.Decomp.*RWY 32: 3.7 kt HW 3.4 kt LCW
Visibility9999 m
Phenomena:N/A
Clouds:Scattered 100 Hf
Expected CloudBase > 5,600 ft AGL from Temp-Dew spread
CeilingNone
Temp32°C (ISA +18)
Dew Point18°C (43% RH)
Heat Index32.8°C
QNH1005 hPa
Density Alt2,923 ft
Elevation358 ft
Report Wrong Elevation
Raw Report
METAR YPTN 231100Z AUTO 28005KT 9999 // SCT100 32/18 Q1005=

Extra information for YPTN:More info

Metar Taf Metar & Taf Last 4 Metars F.Rules Stats Wind Profile Meteogram Temp Stats Airport Information Weather charts Add Link Nearby VenuesMetar ALERT Operation Metar Decoded Social comments